createdAt,value
2023-04-10T00:00:24.197Z,2.71
2023-04-10T00:02:51.499Z,2.73
2023-04-10T00:05:18.706Z,2.72
2023-04-10T00:07:45.333Z,2.68
2023-04-10T00:10:11.933Z,2.56
2023-04-10T00:12:41.688Z,2.63
2023-04-10T00:15:09.043Z,2.64
2023-04-10T00:17:35.715Z,2.64
2023-04-10T00:20:02.745Z,2.57
2023-04-10T00:22:32.236Z,2.59
2023-04-10T00:24:58.927Z,2.65
2023-04-10T00:27:25.630Z,2.62
2023-04-10T00:29:52.336Z,2.61
2023-04-10T00:32:18.922Z,2.57
2023-04-10T00:34:45.847Z,2.54
2023-04-10T00:37:12.530Z,2.47
2023-04-10T00:39:43.787Z,2.43
2023-04-10T00:42:10.688Z,2.39
2023-04-10T00:44:38.111Z,2.35
2023-04-10T00:47:06.020Z,2.41
2023-04-10T00:49:33.437Z,2.37
2023-04-10T00:52:02.041Z,2.46
2023-04-10T00:54:28.929Z,2.48
2023-04-10T00:56:57.377Z,2.52
2023-04-10T00:59:24.204Z,2.49
2023-04-10T01:01:51.132Z,2.39
2023-04-10T01:04:18.222Z,2.31
2023-04-10T01:07:23.369Z,2.30
2023-04-10T01:10:06.876Z,2.22
2023-04-10T01:12:52.396Z,2.18
2023-04-10T01:15:23.023Z,2.07
2023-04-10T01:18:16.774Z,2.05
2023-04-10T01:20:44.125Z,2.02
2023-04-10T01:23:48.081Z,2.06
2023-04-10T01:26:17.587Z,2.03
2023-04-10T01:28:53.831Z,2.07
2023-04-10T01:31:55.467Z,2.04
2023-04-10T01:34:26.890Z,1.99
2023-04-10T01:37:01.596Z,1.97
2023-04-10T01:39:30.542Z,1.95
2023-04-10T01:42:05.371Z,1.88
2023-04-10T01:44:32.707Z,1.85
2023-04-10T01:47:00.716Z,1.89
2023-04-10T01:49:29.764Z,1.85
2023-04-10T01:51:58.795Z,1.85
2023-04-10T01:54:31.038Z,1.92
2023-04-10T01:56:59.966Z,1.91
2023-04-10T01:59:27.147Z,1.90
2023-04-10T02:02:01.035Z,1.83
2023-04-10T02:04:28.286Z,1.78
2023-04-10T02:07:07.849Z,1.75
2023-04-10T02:09:55.978Z,1.75
2023-04-10T02:12:27.030Z,1.67
2023-04-10T02:15:02.176Z,1.70
2023-04-10T02:17:32.845Z,1.62
2023-04-10T02:20:00.955Z,1.62
2023-04-10T02:22:30.221Z,1.62
2023-04-10T02:25:00.578Z,1.67
2023-04-10T02:27:34.044Z,1.60
2023-04-10T02:30:03.727Z,1.52
2023-04-10T02:32:34.007Z,1.56
2023-04-10T02:35:02.231Z,1.58
2023-04-10T02:37:35.147Z,1.69
2023-04-10T02:40:04.815Z,1.63
2023-04-10T02:42:34.273Z,1.47
2023-04-10T02:45:03.503Z,1.46
2023-04-10T02:47:30.573Z,1.57
2023-04-10T02:49:57.317Z,1.48
2023-04-10T02:52:24.040Z,1.50
2023-04-10T02:54:50.694Z,1.48
2023-04-10T02:57:17.433Z,1.41
2023-04-10T02:59:44.890Z,1.36
2023-04-10T03:02:11.891Z,1.42
2023-04-10T03:04:38.692Z,1.43
2023-04-10T03:07:05.777Z,1.38
2023-04-10T03:09:36.015Z,1.33
2023-04-10T03:12:02.929Z,1.31
2023-04-10T03:14:34.310Z,1.36
2023-04-10T03:17:04.272Z,1.34
2023-04-10T03:19:30.927Z,1.25
2023-04-10T03:22:00.226Z,1.13
2023-04-10T03:24:27.227Z,1.14
2023-04-10T03:26:53.904Z,1.20
2023-04-10T03:29:20.773Z,1.17
2023-04-10T03:31:47.492Z,1.18
2023-04-10T03:34:16.795Z,1.19
2023-04-10T03:36:43.403Z,1.13
2023-04-10T03:39:12.356Z,1.11
2023-04-10T03:41:38.980Z,1.07
2023-04-10T03:44:05.812Z,1.11
2023-04-10T03:46:34.375Z,1.07
2023-04-10T03:49:01.374Z,1.03
2023-04-10T03:51:28.665Z,1.04
2023-04-10T03:53:56.071Z,1.07
2023-04-10T03:56:24.464Z,1.03
2023-04-10T03:58:51.178Z,0.97
2023-04-10T04:01:17.949Z,0.99
2023-04-10T04:03:44.848Z,1.01
2023-04-10T04:06:11.660Z,1.07
2023-04-10T04:08:38.887Z,1.04
2023-04-10T04:11:06.450Z,1.00
2023-04-10T04:13:35.839Z,0.97
2023-04-10T04:16:05.546Z,0.93
2023-04-10T04:18:34.793Z,1.04
2023-04-10T04:21:05.590Z,1.00
2023-04-10T04:23:32.344Z,1.00
2023-04-10T04:26:01.186Z,1.09
2023-04-10T04:28:30.446Z,1.28
2023-04-10T04:30:58.859Z,1.14
2023-04-10T04:33:25.513Z,1.09
2023-04-10T04:35:53.690Z,1.18
2023-04-10T04:38:20.686Z,1.29
2023-04-10T04:40:47.323Z,1.36
2023-04-10T04:43:14.153Z,1.37
2023-04-10T04:45:40.977Z,1.34
2023-04-10T04:48:10.453Z,1.34
2023-04-10T04:50:40.066Z,1.36
2023-04-10T04:53:08.005Z,1.40
2023-04-10T04:55:37.152Z,1.57
2023-04-10T04:58:03.820Z,1.57
2023-04-10T05:00:32.797Z,1.60
2023-04-10T05:02:59.539Z,1.75
2023-04-10T05:05:26.306Z,1.89
2023-04-10T05:07:53.024Z,1.97
2023-04-10T05:10:26.370Z,1.98
2023-04-10T05:12:55.732Z,2.14
2023-04-10T05:15:25.055Z,2.34
2023-04-10T05:17:53.256Z,2.43
2023-04-10T05:20:21.827Z,2.60
2023-04-10T05:22:51.354Z,2.77
2023-04-10T05:25:20.695Z,2.96
2023-04-10T05:27:50.138Z,3.25
2023-04-10T05:30:19.892Z,3.44
2023-04-10T05:32:52.345Z,3.65
2023-04-10T05:35:21.705Z,3.95
2023-04-10T05:37:48.506Z,4.10
2023-04-10T05:40:17.273Z,4.38
2023-04-10T05:42:45.947Z,4.65
2023-04-10T05:45:16.569Z,4.83
2023-04-10T05:47:44.901Z,5.12
2023-04-10T05:50:16.154Z,5.39
2023-04-10T05:52:42.834Z,5.76
2023-04-10T05:55:16.571Z,5.89
2023-04-10T05:57:46.883Z,5.96
2023-04-10T06:00:15.228Z,6.30
2023-04-10T06:02:44.648Z,6.52
2023-04-10T06:05:11.811Z,6.81
2023-04-10T06:07:38.473Z,6.88
2023-04-10T06:10:08.843Z,6.93
2023-04-10T06:12:38.861Z,7.14
2023-04-10T06:15:11.911Z,7.40
2023-04-10T06:17:50.973Z,7.63
2023-04-10T06:20:17.773Z,7.74
2023-04-10T06:22:47.386Z,7.83
2023-04-10T06:25:16.558Z,7.82
2023-04-10T06:27:49.060Z,7.60
2023-04-10T06:30:17.864Z,7.48
2023-04-10T06:32:46.830Z,7.57
2023-04-10T06:35:14.875Z,7.50
2023-04-10T06:37:44.827Z,7.44
2023-04-10T06:40:14.063Z,7.36
2023-04-10T06:42:44.457Z,7.54
2023-04-10T06:45:17.279Z,7.54
2023-04-10T06:47:52.392Z,7.52
2023-04-10T06:50:19.429Z,7.32
2023-04-10T06:52:46.749Z,7.22
2023-04-10T06:55:13.439Z,7.49
2023-04-10T06:57:40.714Z,7.51
2023-04-10T07:00:11.207Z,7.59
2023-04-10T07:02:40.675Z,7.58
2023-04-10T07:05:09.892Z,7.52
2023-04-10T07:07:38.839Z,7.47
2023-04-10T07:18:49.605Z,7.93
2023-04-10T07:21:19.703Z,8.14
2023-04-10T07:24:00.997Z,8.39
2023-04-10T07:26:36.806Z,8.42
2023-04-10T07:29:09.180Z,8.74
2023-04-10T07:31:36.081Z,8.78
2023-04-10T07:34:20.212Z,9.04
2023-04-10T07:37:17.409Z,9.49
2023-04-10T07:39:53.658Z,9.52
2023-04-10T07:42:40.706Z,10.22
2023-04-10T07:45:11.597Z,10.11
2023-04-10T07:47:38.499Z,10.00
2023-04-10T07:50:15.767Z,10.61
2023-04-10T07:52:46.653Z,10.67
2023-04-10T07:55:20.961Z,10.47
2023-04-10T07:57:56.736Z,10.54
2023-04-10T08:03:42.097Z,11.01
2023-04-10T08:06:12.281Z,11.39
2023-04-10T08:08:55.805Z,11.71
2023-04-10T08:11:43.468Z,11.39
2023-04-10T08:14:12.714Z,11.86
2023-04-10T08:16:45.184Z,11.40
2023-04-10T08:19:38.378Z,11.40
2023-04-10T08:22:12.497Z,11.72
2023-04-10T08:27:26.070Z,12.54
2023-04-10T08:29:52.792Z,12.56
2023-04-10T08:32:26.641Z,12.41
2023-04-10T08:34:55.384Z,12.62
2023-04-10T08:37:26.422Z,12.43
2023-04-10T08:39:55.957Z,13.22
2023-04-10T08:42:25.226Z,12.77
2023-04-10T08:45:08.937Z,12.80
2023-04-10T09:01:24.383Z,13.44
2023-04-10T09:03:54.484Z,13.91
2023-04-10T09:06:21.523Z,13.67
2023-04-10T09:08:50.929Z,14.52
2023-04-10T09:11:17.774Z,14.91
2023-04-10T09:13:48.565Z,14.43
2023-04-10T09:16:19.849Z,14.26
2023-04-10T09:18:57.851Z,14.33
2023-04-10T09:21:31.176Z,13.73
2023-04-10T09:24:07.298Z,14.41
2023-04-10T09:26:40.870Z,13.99
2023-04-10T09:29:15.291Z,14.37
2023-04-10T09:31:51.204Z,15.12
2023-04-10T09:34:32.694Z,15.25
2023-04-10T09:37:06.766Z,15.68
2023-04-10T09:39:45.845Z,15.04
2023-04-10T09:42:16.781Z,15.70
2023-04-10T09:44:46.458Z,15.23
2023-04-10T09:47:25.834Z,14.93
2023-04-10T09:50:02.454Z,15.30
2023-04-10T09:52:55.702Z,15.36
2023-04-10T09:58:32.508Z,15.48
2023-04-10T10:01:06.710Z,15.73
2023-04-10T10:03:44.709Z,15.63
2023-04-10T10:06:24.182Z,15.87
2023-04-10T10:09:24.579Z,16.66
2023-04-10T10:18:31.573Z,16.88
2023-04-10T10:20:59.280Z,16.49
2023-04-10T10:23:27.142Z,16.45
2023-04-10T10:25:56.102Z,16.22
2023-04-10T10:28:25.288Z,16.30
2023-04-10T10:30:55.835Z,16.73
2023-04-10T10:33:24.868Z,16.03
2023-04-10T10:35:53.031Z,16.96
2023-04-10T10:38:20.022Z,16.99
2023-04-10T10:41:00.550Z,16.96
2023-04-10T10:44:03.850Z,15.92
2023-04-10T10:46:48.674Z,15.62
2023-04-10T10:49:25.267Z,16.52
2023-04-10T10:51:57.598Z,16.28
2023-04-10T10:54:53.783Z,16.96
2023-04-10T10:58:14.648Z,17.44
2023-04-10T11:00:56.050Z,17.67
2023-04-10T11:03:22.923Z,17.24
2023-04-10T11:06:02.310Z,16.89
2023-04-10T11:08:49.669Z,16.67
2023-04-10T11:11:16.432Z,17.52
2023-04-10T11:14:05.799Z,17.08
2023-04-10T11:16:45.035Z,16.86
2023-04-10T11:19:26.453Z,16.84
2023-04-10T11:22:04.753Z,17.42
2023-04-10T11:25:29.263Z,17.61
2023-04-10T11:36:56.459Z,18.16
2023-04-10T11:39:26.497Z,17.64
2023-04-10T11:42:26.953Z,17.44
2023-04-10T11:45:26.349Z,16.87
2023-04-10T11:47:55.902Z,16.91
2023-04-10T11:50:24.488Z,17.56
2023-04-10T11:53:48.191Z,17.94
2023-04-10T11:56:24.600Z,17.73
2023-04-10T11:59:21.510Z,17.59
2023-04-10T12:02:20.758Z,18.16
2023-04-10T12:05:13.066Z,17.65
2023-04-10T12:18:19.182Z,17.77
2023-04-10T12:21:14.400Z,17.34
2023-04-10T12:24:45.618Z,17.36
2023-04-10T12:34:03.779Z,18.30
2023-04-10T12:40:15.425Z,18.09
2023-04-10T12:46:02.416Z,17.60
2023-04-10T12:52:58.643Z,17.53
2023-04-10T12:55:58.326Z,17.88
2023-04-10T13:06:28.317Z,18.03
2023-04-10T13:18:49.186Z,17.99
2023-04-10T13:27:50.198Z,17.62
2023-04-10T13:42:20.865Z,18.05
2023-04-10T13:45:16.525Z,17.81
2023-04-10T13:48:11.527Z,17.61
2023-04-10T13:56:59.297Z,18.35
2023-04-10T14:02:09.688Z,17.86
2023-04-10T14:04:36.467Z,17.82
2023-04-10T14:07:03.165Z,18.19
2023-04-10T14:09:29.987Z,18.52
2023-04-10T14:26:06.604Z,16.73
2023-04-10T14:28:33.433Z,16.92
2023-04-10T14:31:00.990Z,16.74
2023-04-10T14:33:27.642Z,16.76
2023-04-10T14:35:54.869Z,17.12
2023-04-10T22:59:10.903Z,10.36
2023-04-10T23:01:37.627Z,10.12
2023-04-10T23:04:04.535Z,10.02
2023-04-10T23:06:32.507Z,10.03
2023-04-10T23:08:59.133Z,10.03
2023-04-10T23:11:25.702Z,9.96
